createdAt,value
2017-02-19T00:00:05.154Z,18.7
2017-02-19T00:02:04.886Z,18.7
2017-02-19T00:04:04.853Z,18.7
2017-02-19T00:06:05.723Z,18.7
2017-02-19T00:08:05.461Z,18.7
2017-02-19T00:10:05.231Z,18.7
2017-02-19T00:12:12.737Z,18.7
2017-02-19T00:14:08.015Z,18.7
2017-02-19T00:16:07.256Z,18.7
2017-02-19T00:18:07.869Z,18.7
2017-02-19T00:20:05.185Z,18.7
2017-02-19T00:22:04.903Z,18.7
2017-02-19T00:24:12.813Z,18.7
2017-02-19T00:26:05.489Z,18.7
2017-02-19T00:28:07.900Z,18.7
2017-02-19T00:30:05.255Z,18.8
2017-02-19T00:32:05.005Z,18.8
2017-02-19T00:34:04.826Z,18.8
2017-02-19T00:36:05.647Z,18.8
2017-02-19T00:38:05.399Z,18.9
2017-02-19T00:40:07.165Z,18.9
2017-02-19T00:42:07.570Z,18.9
2017-02-19T00:44:10.551Z,18.9
2017-02-19T00:46:10.433Z,18.9
2017-02-19T00:48:05.315Z,18.9
2017-02-19T00:50:05.675Z,18.9
2017-02-19T00:52:05.505Z,18.9
2017-02-19T00:54:10.432Z,18.9
2017-02-19T00:56:07.393Z,18.9
2017-02-19T00:58:07.634Z,18.9
2017-02-19T01:00:05.500Z,18.9
2017-02-19T01:02:05.209Z,18.9
2017-02-19T01:04:07.514Z,18.9
2017-02-19T01:06:05.368Z,18.9
2017-02-19T01:08:04.719Z,18.9
2017-02-19T01:10:05.456Z,18.9
2017-02-19T01:12:05.321Z,18.9
2017-02-19T01:14:05.034Z,18.9
2017-02-19T01:16:04.964Z,18.9
2017-02-19T01:18:05.649Z,18.9
2017-02-19T01:20:05.376Z,18.9
2017-02-19T01:22:05.101Z,18.9
2017-02-19T01:24:05.259Z,18.9
2017-02-19T01:26:05.024Z,18.9
2017-02-19T01:28:04.754Z,18.9
2017-02-19T01:30:05.609Z,18.9
2017-02-19T01:32:05.044Z,18.9
2017-02-19T01:34:04.787Z,18.9
2017-02-19T01:36:05.595Z,18.9
2017-02-19T01:38:07.906Z,18.8
2017-02-19T01:40:07.791Z,18.8
2017-02-19T01:42:07.257Z,18.9
2017-02-19T01:44:08.030Z,18.9
2017-02-19T01:46:04.707Z,18.9
2017-02-19T01:48:05.522Z,18.9
2017-02-19T01:50:07.782Z,18.8
2017-02-19T01:52:05.504Z,18.8
2017-02-19T01:54:09.925Z,18.9
2017-02-19T01:56:04.648Z,18.9
2017-02-19T01:58:10.460Z,18.9
2017-02-19T02:00:07.869Z,18.9
2017-02-19T02:02:05.211Z,18.9
2017-02-19T02:04:05.217Z,18.9
2017-02-19T02:06:05.129Z,18.9
2017-02-19T02:08:07.444Z,18.9
2017-02-19T02:10:07.242Z,18.9
2017-02-19T02:12:05.097Z,18.9
2017-02-19T02:14:04.876Z,18.9
2017-02-19T02:16:05.229Z,18.9
2017-02-19T02:18:05.305Z,18.9
2017-02-19T02:20:10.272Z,18.8
2017-02-19T02:22:07.507Z,18.9
2017-02-19T02:24:07.880Z,18.9
2017-02-19T02:26:07.156Z,18.9
2017-02-19T02:28:05.443Z,18.9
2017-02-19T02:30:07.833Z,18.9
2017-02-19T02:32:04.893Z,18.9
2017-02-19T02:34:04.632Z,18.8
2017-02-19T02:36:05.685Z,18.9
2017-02-19T02:38:13.067Z,18.8
2017-02-19T02:40:04.936Z,18.8
2017-02-19T02:42:04.856Z,18.9
2017-02-19T02:44:05.580Z,18.9
2017-02-19T02:46:05.309Z,18.9
2017-02-19T02:48:05.356Z,18.8
2017-02-19T02:50:04.667Z,18.8
2017-02-19T02:52:07.560Z,18.9
2017-02-19T02:54:05.355Z,18.8
2017-02-19T02:56:05.035Z,18.8
2017-02-19T02:58:05.303Z,18.9
2017-02-19T03:00:07.779Z,18.9
2017-02-19T03:02:05.008Z,18.8
2017-02-19T03:04:04.732Z,18.8
2017-02-19T03:06:05.660Z,18.9
2017-02-19T03:08:08.065Z,18.9
2017-02-19T03:10:04.796Z,18.8
2017-02-19T03:12:05.282Z,18.9
2017-02-19T03:14:05.027Z,18.9
2017-02-19T03:16:04.799Z,18.9
2017-02-19T03:18:04.913Z,18.8
2017-02-19T03:20:05.219Z,18.9
2017-02-19T03:22:04.982Z,18.9
2017-02-19T03:24:05.068Z,18.9
2017-02-19T03:26:04.857Z,18.9
2017-02-19T03:28:07.216Z,18.8
2017-02-19T03:30:05.081Z,18.8
2017-02-19T03:32:04.832Z,18.9
2017-02-19T03:34:05.591Z,18.9
2017-02-19T03:36:07.994Z,18.8
2017-02-19T03:38:04.718Z,18.8
2017-02-19T03:40:05.550Z,18.8
2017-02-19T03:42:05.364Z,18.9
2017-02-19T03:44:05.651Z,18.9
2017-02-19T03:46:07.918Z,18.9
2017-02-19T03:48:04.769Z,18.9
2017-02-19T03:50:08.153Z,18.8
2017-02-19T03:52:05.156Z,18.8
2017-02-19T03:54:05.198Z,18.8
2017-02-19T03:56:05.110Z,18.8
2017-02-19T03:58:04.863Z,18.8
2017-02-19T04:00:07.298Z,18.9
2017-02-19T04:02:05.122Z,18.8
2017-02-19T04:04:05.204Z,18.8
2017-02-19T04:06:05.754Z,18.9
2017-02-19T04:08:05.557Z,18.9
2017-02-19T04:10:05.273Z,18.9
2017-02-19T04:12:05.383Z,18.8
2017-02-19T04:14:04.805Z,18.8
2017-02-19T04:16:04.716Z,18.9
2017-02-19T04:18:05.092Z,18.8
2017-02-19T04:20:04.805Z,18.8
2017-02-19T04:22:08.066Z,18.9
2017-02-19T04:24:05.118Z,18.8
2017-02-19T04:26:04.827Z,18.8
2017-02-19T04:28:08.541Z,18.9
2017-02-19T04:30:10.744Z,18.8
2017-02-19T04:32:04.989Z,18.8
2017-02-19T04:34:04.722Z,18.8
2017-02-19T04:36:05.702Z,18.8
2017-02-19T04:38:07.926Z,18.8
2017-02-19T04:40:04.662Z,18.8
2017-02-19T04:42:08.256Z,18.9
2017-02-19T04:44:05.123Z,18.9
2017-02-19T04:46:07.373Z,18.8
2017-02-19T04:48:05.230Z,18.8
2017-02-19T04:50:04.982Z,18.9
2017-02-19T04:52:04.682Z,18.9
2017-02-19T04:54:05.763Z,18.9
2017-02-19T04:56:05.485Z,18.8
2017-02-19T04:58:05.228Z,18.9
2017-02-19T05:00:05.262Z,18.9
2017-02-19T05:02:04.993Z,18.9
2017-02-19T05:04:14.801Z,18.8
2017-02-19T05:06:06.207Z,18.8
2017-02-19T05:08:04.927Z,18.8
2017-02-19T05:10:04.679Z,18.9
2017-02-19T05:12:05.496Z,18.9
2017-02-19T05:14:07.770Z,18.8
2017-02-19T05:16:05.633Z,18.8
2017-02-19T05:18:05.901Z,18.9
2017-02-19T05:20:04.610Z,18.9
2017-02-19T05:22:04.865Z,18.8
2017-02-19T05:24:04.770Z,18.9
2017-02-19T05:26:05.251Z,18.9
2017-02-19T05:28:04.990Z,18.9
2017-02-19T05:30:04.909Z,18.8
2017-02-19T05:32:05.070Z,18.9
2017-02-19T05:34:05.333Z,18.8
2017-02-19T05:36:07.899Z,18.9
2017-02-19T05:38:04.632Z,18.8
2017-02-19T05:40:07.912Z,18.9
2017-02-19T05:42:04.724Z,18.8
2017-02-19T05:44:05.511Z,18.9
2017-02-19T05:46:05.340Z,18.8
2017-02-19T05:48:05.631Z,18.9
2017-02-19T05:50:05.592Z,18.8
2017-02-19T05:52:07.924Z,18.9
2017-02-19T05:54:07.470Z,18.9
2017-02-19T05:56:05.327Z,18.8
2017-02-19T05:58:04.656Z,18.9
2017-02-19T06:00:05.875Z,18.8
2017-02-19T06:02:05.179Z,18.8
2017-02-19T06:04:07.762Z,18.8
2017-02-19T06:06:05.695Z,18.8
2017-02-19T06:08:07.922Z,18.8
2017-02-19T06:10:04.605Z,18.8
2017-02-19T06:12:05.480Z,18.8
2017-02-19T06:14:04.766Z,18.8
2017-02-19T06:16:10.525Z,18.8
2017-02-19T06:18:05.631Z,18.8
2017-02-19T06:20:10.652Z,18.8
2017-02-19T06:22:10.480Z,18.8
2017-02-19T06:24:05.514Z,18.8
2017-02-19T06:26:05.255Z,18.8
2017-02-19T06:28:07.538Z,18.8
2017-02-19T06:30:13.552Z,18.8
2017-02-19T06:32:12.864Z,18.8
2017-02-19T06:34:05.563Z,18.8
2017-02-19T06:36:05.621Z,18.8
2017-02-19T06:38:05.369Z,18.8
2017-02-19T06:40:07.614Z,18.8
2017-02-19T06:42:05.314Z,18.8
2017-02-19T06:44:05.067Z,18.9
2017-02-19T06:46:04.828Z,18.8
2017-02-19T06:48:05.678Z,18.8
2017-02-19T06:50:07.925Z,18.8
2017-02-19T06:52:09.901Z,18.8
2017-02-19T06:54:04.826Z,18.8
2017-02-19T06:56:05.072Z,18.8
2017-02-19T06:58:04.792Z,18.8
2017-02-19T07:00:08.293Z,18.8
2017-02-19T07:02:05.097Z,18.8
2017-02-19T07:04:09.867Z,18.8
2017-02-19T07:06:07.989Z,18.9
2017-02-19T07:08:05.000Z,18.8
2017-02-19T07:10:04.762Z,18.8
2017-02-19T07:12:08.133Z,18.8
2017-02-19T07:14:07.999Z,18.8
2017-02-19T07:16:05.501Z,18.8
2017-02-19T07:18:05.637Z,18.9
2017-02-19T07:20:05.401Z,18.9
2017-02-19T07:22:07.240Z,18.9
2017-02-19T07:24:05.199Z,18.9
2017-02-19T07:26:05.416Z,18.9
2017-02-19T07:28:07.655Z,19
2017-02-19T07:30:08.281Z,19
2017-02-19T07:32:10.098Z,19
2017-02-19T07:34:07.308Z,19
2017-02-19T07:36:05.931Z,19
2017-02-19T07:38:04.656Z,19.1
2017-02-19T07:40:10.674Z,19.1
2017-02-19T07:42:08.454Z,19.2
2017-02-19T07:44:05.180Z,19.2
2017-02-19T07:46:04.922Z,19.2
2017-02-19T07:48:05.040Z,19.2
2017-02-19T07:50:05.280Z,19.2
2017-02-19T07:52:04.983Z,19.2
2017-02-19T07:54:04.945Z,19.2
2017-02-19T07:56:04.771Z,19.1
2017-02-19T07:58:05.075Z,19.1
2017-02-19T08:00:05.582Z,19.1
2017-02-19T08:02:05.315Z,19.1
2017-02-19T08:04:07.678Z,19.1
2017-02-19T08:06:05.290Z,19.1
2017-02-19T08:08:05.006Z,19.1
2017-02-19T08:10:07.287Z,19.2
2017-02-19T08:12:05.298Z,19.2
2017-02-19T08:14:05.063Z,19.2
2017-02-19T08:16:04.814Z,19.2
2017-02-19T08:18:04.869Z,19.3
2017-02-19T08:20:05.162Z,19.4
2017-02-19T08:22:04.882Z,19.4
2017-02-19T08:24:05.504Z,19.4
2017-02-19T08:26:07.806Z,19.5
2017-02-19T08:28:05.880Z,19.5
2017-02-19T08:30:05.894Z,19.6
2017-02-19T08:32:07.162Z,19.7
2017-02-19T08:34:04.881Z,19.6
2017-02-19T08:36:05.284Z,19.7
2017-02-19T08:38:07.512Z,19.7
2017-02-19T08:40:05.224Z,19.7
2017-02-19T08:42:10.654Z,19.7
2017-02-19T08:44:05.704Z,19.8
2017-02-19T08:46:07.174Z,19.7
2017-02-19T08:48:07.767Z,19.6
2017-02-19T08:50:05.013Z,19.6
2017-02-19T08:52:04.730Z,19.6
2017-02-19T08:54:05.875Z,19.6
2017-02-19T08:56:08.139Z,19.6
2017-02-19T08:58:05.320Z,19.6
2017-02-19T09:00:10.324Z,19.6
2017-02-19T09:02:04.995Z,19.6
2017-02-19T09:04:04.943Z,19.6
2017-02-19T09:06:05.408Z,19.5
2017-02-19T09:08:05.351Z,19.5
2017-02-19T09:10:07.575Z,19.5
2017-02-19T09:12:08.288Z,19.5
2017-02-19T09:14:05.568Z,19.5
2017-02-19T09:16:05.609Z,19.5
2017-02-19T09:18:08.228Z,19.5
2017-02-19T09:20:05.036Z,19.5
2017-02-19T09:22:04.747Z,19.5
2017-02-19T09:24:06.191Z,19.5
2017-02-19T09:26:08.090Z,19.4
2017-02-19T09:28:05.332Z,19.4
2017-02-19T09:30:07.932Z,19.4
2017-02-19T09:32:05.016Z,19.4
2017-02-19T09:34:04.749Z,19.4
2017-02-19T09:36:08.376Z,19.4
2017-02-19T09:38:04.702Z,19.4
2017-02-19T09:40:05.440Z,19.4
2017-02-19T09:42:08.030Z,19.4
2017-02-19T09:44:04.835Z,19.4
2017-02-19T09:46:06.520Z,19.4
2017-02-19T09:48:10.649Z,19.4
2017-02-19T09:50:04.725Z,19.4
2017-02-19T09:52:04.683Z,19.4
2017-02-19T09:54:06.221Z,19.4
2017-02-19T09:56:04.923Z,19.4
2017-02-19T09:58:05.584Z,19.4
2017-02-19T10:00:05.561Z,19.4
2017-02-19T10:02:05.424Z,19.5
2017-02-19T10:04:05.294Z,19.5
2017-02-19T10:06:07.876Z,19.5
2017-02-19T10:08:04.606Z,19.5
2017-02-19T10:10:06.841Z,19.4
2017-02-19T10:12:08.108Z,19.5
2017-02-19T10:14:05.283Z,19.4
2017-02-19T10:16:05.058Z,19.4
2017-02-19T10:18:05.319Z,19.4
2017-02-19T10:20:05.941Z,19.4
2017-02-19T10:22:05.178Z,19.4
2017-02-19T10:24:05.300Z,19.5
2017-02-19T10:26:05.116Z,19.4
2017-02-19T10:28:07.584Z,19.4
2017-02-19T10:30:06.241Z,19.4
2017-02-19T10:32:07.494Z,19.4
2017-02-19T10:34:04.727Z,19.4
2017-02-19T10:36:05.343Z,19.4
2017-02-19T10:38:05.041Z,19.4
2017-02-19T10:40:04.779Z,19.4
2017-02-19T10:42:08.343Z,19.4
2017-02-19T10:44:05.099Z,19.4
2017-02-19T10:46:04.840Z,19.4
2017-02-19T10:48:05.760Z,19.4
2017-02-19T10:50:05.479Z,19.4
2017-02-19T10:52:05.065Z,19.5
2017-02-19T10:54:08.198Z,19.5
2017-02-19T10:56:07.473Z,19.5
2017-02-19T10:58:04.726Z,19.5
2017-02-19T11:00:06.390Z,19.6
2017-02-19T11:02:05.227Z,19.6
2017-02-19T11:04:05.033Z,19.6
2017-02-19T11:06:05.096Z,19.6
2017-02-19T11:08:05.300Z,19.6
2017-02-19T11:10:05.190Z,19.6
2017-02-19T11:12:08.408Z,19.6
2017-02-19T11:14:05.169Z,19.6
2017-02-19T11:16:05.006Z,19.6
2017-02-19T11:18:05.310Z,19.6
2017-02-19T11:20:05.570Z,19.6
2017-02-19T11:22:05.288Z,19.6
2017-02-19T11:24:05.770Z,19.6
2017-02-19T11:26:05.549Z,19.6
2017-02-19T11:28:05.543Z,19.6
2017-02-19T11:30:05.634Z,19.7
2017-02-19T11:32:07.882Z,19.7
2017-02-19T11:34:04.603Z,19.7
2017-02-19T11:36:05.688Z,19.6
2017-02-19T11:38:05.414Z,19.6
2017-02-19T11:40:05.446Z,19.6
2017-02-19T11:42:07.807Z,19.5
2017-02-19T11:44:05.557Z,19.5
2017-02-19T11:46:05.503Z,19.5
2017-02-19T11:48:05.510Z,19.5
2017-02-19T11:50:05.319Z,19.5
2017-02-19T11:52:05.067Z,19.5
2017-02-19T11:54:05.199Z,19.5
2017-02-19T11:56:05.725Z,19.5
2017-02-19T11:58:05.459Z,19.4
2017-02-19T12:00:05.146Z,19.4
2017-02-19T12:02:04.925Z,19.5
2017-02-19T12:04:07.164Z,19.4
2017-02-19T12:06:07.792Z,19.4
2017-02-19T12:08:04.612Z,19.4
2017-02-19T12:10:05.374Z,19.4
2017-02-19T12:12:05.440Z,19.4
2017-02-19T12:14:15.385Z,19.4
2017-02-19T12:16:04.635Z,19.4
2017-02-19T12:18:05.264Z,19.4
2017-02-19T12:20:05.633Z,19.4
2017-02-19T12:22:05.493Z,19.4
2017-02-19T12:24:05.536Z,19.4
2017-02-19T12:26:05.342Z,19.4
2017-02-19T12:28:05.321Z,19.4
2017-02-19T12:30:10.389Z,19.4
2017-02-19T12:32:05.135Z,19.4
2017-02-19T12:34:05.433Z,19.4
2017-02-19T12:36:05.497Z,19.4
2017-02-19T12:38:05.347Z,19.4
2017-02-19T12:40:05.083Z,19.4
2017-02-19T12:42:05.614Z,19.4
2017-02-19T12:44:05.614Z,19.4
2017-02-19T12:46:05.342Z,19.4
2017-02-19T12:48:05.344Z,19.4
2017-02-19T12:50:05.109Z,19.4
2017-02-19T12:52:07.617Z,19.5
2017-02-19T12:54:06.193Z,19.5
2017-02-19T12:56:05.111Z,19.5
2017-02-19T12:58:07.397Z,19.5
2017-02-19T13:00:05.380Z,19.5
2017-02-19T13:02:05.233Z,19.5
2017-02-19T13:04:05.334Z,19.5
2017-02-19T13:06:06.127Z,19.5
2017-02-19T13:08:04.890Z,19.5
2017-02-19T13:10:07.186Z,19.6
2017-02-19T13:12:05.029Z,19.6
2017-02-19T13:14:04.771Z,19.6
2017-02-19T13:16:05.578Z,19.6
2017-02-19T13:18:05.364Z,19.6
2017-02-19T13:20:07.640Z,19.6
2017-02-19T13:22:05.424Z,19.6
2017-02-19T13:24:05.611Z,19.6
2017-02-19T13:26:07.556Z,19.6
2017-02-19T13:28:05.287Z,19.6
2017-02-19T13:30:05.572Z,19.6
2017-02-19T13:32:05.628Z,19.6
2017-02-19T13:34:07.155Z,19.6
2017-02-19T13:36:05.192Z,19.6
2017-02-19T13:38:04.860Z,19.6
2017-02-19T13:40:05.568Z,19.6
2017-02-19T13:42:05.614Z,19.6
2017-02-19T13:44:05.583Z,19.6
2017-02-19T13:46:05.342Z,19.5
2017-02-19T13:48:07.868Z,19.5
2017-02-19T13:50:04.689Z,19.5
2017-02-19T13:52:05.040Z,19.5
2017-02-19T13:54:04.952Z,19.5
2017-02-19T13:56:04.689Z,19.5
2017-02-19T13:58:05.557Z,19.5
2017-02-19T14:00:05.573Z,19.5
2017-02-19T14:02:07.839Z,19.5
2017-02-19T14:04:05.965Z,19.5
2017-02-19T14:06:07.531Z,19.4
2017-02-19T14:08:04.789Z,19.4
2017-02-19T14:10:05.540Z,19.4
2017-02-19T14:12:05.612Z,19.4
2017-02-19T14:14:05.445Z,19.4
2017-02-19T14:16:04.773Z,19.4
2017-02-19T14:18:05.477Z,19.4
2017-02-19T14:20:05.421Z,19.5
2017-02-19T14:22:05.219Z,19.4
2017-02-19T14:24:05.242Z,19.4
2017-02-19T14:26:05.023Z,19.4
2017-02-19T14:28:05.271Z,19.4
2017-02-19T14:30:05.302Z,19.4
2017-02-19T14:32:05.169Z,19.4
2017-02-19T14:34:07.396Z,19.4
2017-02-19T14:36:05.387Z,19.4
2017-02-19T14:38:05.169Z,19.4
2017-02-19T14:40:04.926Z,19.4
2017-02-19T14:42:10.721Z,19.4
2017-02-19T14:44:10.533Z,19.4
2017-02-19T14:46:04.824Z,19.3
2017-02-19T14:48:05.860Z,19.4
2017-02-19T14:50:05.657Z,19.3
2017-02-19T14:52:05.709Z,19.3
2017-02-19T14:54:05.603Z,19.3
2017-02-19T14:56:07.898Z,19.3
2017-02-19T14:58:04.684Z,19.3
2017-02-19T15:00:05.592Z,19.3
2017-02-19T15:02:05.347Z,19.3
2017-02-19T15:04:04.608Z,19.3
2017-02-19T15:06:05.675Z,19.3
2017-02-19T15:08:05.770Z,19.3
2017-02-19T15:10:05.501Z,19.3
2017-02-19T15:12:05.452Z,19.3
2017-02-19T15:14:05.193Z,19.2
2017-02-19T15:16:05.168Z,19.2
2017-02-19T15:18:05.463Z,19.3
2017-02-19T15:20:05.306Z,19.2
2017-02-19T15:22:10.105Z,19.2
2017-02-19T15:24:05.190Z,19.2
2017-02-19T15:26:05.470Z,19.2
2017-02-19T15:28:07.463Z,19.2
2017-02-19T15:30:05.692Z,19.2
2017-02-19T15:32:05.399Z,19.2
2017-02-19T15:34:05.171Z,19.2
2017-02-19T15:36:05.124Z,19.2
2017-02-19T15:38:07.497Z,19.2
2017-02-19T15:40:05.682Z,19.2
2017-02-19T15:42:05.629Z,19.2
2017-02-19T15:44:07.907Z,19.2
2017-02-19T15:46:04.849Z,19.2
2017-02-19T15:48:04.954Z,19.2
2017-02-19T15:50:04.636Z,19.2
2017-02-19T15:52:05.587Z,19.2
2017-02-19T15:54:07.727Z,19.2
2017-02-19T15:56:05.189Z,19.2
2017-02-19T15:58:05.049Z,19.2
2017-02-19T16:00:10.257Z,19.2
2017-02-19T16:02:07.516Z,19.2
2017-02-19T16:04:05.230Z,19.2
2017-02-19T16:06:05.712Z,19.2
2017-02-19T16:08:05.047Z,19.2
2017-02-19T16:10:04.927Z,19.2
2017-02-19T16:12:05.795Z,19.2
2017-02-19T16:14:05.576Z,19.2
2017-02-19T16:16:05.269Z,19.1
2017-02-19T16:18:05.408Z,19.1
2017-02-19T16:20:05.216Z,19.1
2017-02-19T16:22:04.953Z,19.1
2017-02-19T16:24:05.195Z,19.1
2017-02-19T16:26:10.033Z,19.1
2017-02-19T16:28:06.329Z,19.1
2017-02-19T16:30:05.381Z,19.2
2017-02-19T16:32:05.095Z,19.1
2017-02-19T16:34:04.927Z,19.1
2017-02-19T16:36:04.982Z,19.1
2017-02-19T16:38:08.225Z,19.1
2017-02-19T16:40:04.977Z,19.1
2017-02-19T16:42:06.349Z,19.1
2017-02-19T16:44:07.978Z,19.1
2017-02-19T16:46:04.789Z,19.1
2017-02-19T16:48:05.633Z,19.1
2017-02-19T16:50:04.911Z,19.1
2017-02-19T16:52:04.709Z,19.1
2017-02-19T16:54:10.917Z,19.1
2017-02-19T16:56:04.620Z,19.1
2017-02-19T16:58:05.032Z,19.1
2017-02-19T17:00:08.039Z,19.1
2017-02-19T17:02:04.766Z,19.1
2017-02-19T17:04:05.459Z,19.1
2017-02-19T17:06:05.223Z,19.1
2017-02-19T17:08:05.955Z,19.1
2017-02-19T17:10:04.754Z,19.1
2017-02-19T17:12:05.940Z,19.1
2017-02-19T17:14:05.262Z,19.1
2017-02-19T17:16:08.346Z,19.1
2017-02-19T17:18:05.835Z,19.1
2017-02-19T17:20:04.732Z,19.1
2017-02-19T17:22:05.286Z,19.1
2017-02-19T17:24:05.294Z,19.1
2017-02-19T17:26:05.045Z,19.1
2017-02-19T17:28:07.515Z,19.1
2017-02-19T17:30:05.599Z,19.1
2017-02-19T17:32:05.552Z,19.1
2017-02-19T17:34:05.267Z,19.1
2017-02-19T17:36:05.453Z,19.1
2017-02-19T17:38:04.821Z,19.2
2017-02-19T17:40:15.692Z,19.1
2017-02-19T17:42:05.615Z,19.1
2017-02-19T17:44:04.905Z,19.1
2017-02-19T17:46:05.142Z,19.2
2017-02-19T17:48:11.224Z,19.1
2017-02-19T17:50:05.979Z,19.2
2017-02-19T17:52:07.237Z,19.1
2017-02-19T17:54:05.296Z,19.1
2017-02-19T17:56:05.512Z,19.2
2017-02-19T17:58:05.238Z,19.1
2017-02-19T18:00:05.749Z,19.1
2017-02-19T18:02:05.222Z,19.2
2017-02-19T18:04:05.220Z,19.1
2017-02-19T18:06:13.497Z,19.1
2017-02-19T18:08:05.319Z,19.2
2017-02-19T18:10:05.176Z,19.1
2017-02-19T18:12:05.101Z,19.2
2017-02-19T18:14:04.952Z,19.2
2017-02-19T18:16:04.727Z,19.2
2017-02-19T18:18:05.444Z,19.2
2017-02-19T18:20:10.525Z,19.2
2017-02-19T18:22:05.250Z,19.2
2017-02-19T18:24:04.915Z,19.2
2017-02-19T18:26:05.163Z,19.2
2017-02-19T18:28:05.325Z,19.2
2017-02-19T18:30:05.759Z,19.2
2017-02-19T18:32:05.629Z,19.2
2017-02-19T18:34:04.917Z,19.2
2017-02-19T18:36:04.857Z,19.2
2017-02-19T18:38:04.788Z,19.2
2017-02-19T18:40:05.079Z,19.2
2017-02-19T18:42:05.329Z,19.2
2017-02-19T18:44:07.678Z,19.2
2017-02-19T18:46:05.972Z,19.2
2017-02-19T18:48:05.055Z,19.2
2017-02-19T18:50:05.494Z,19.2
2017-02-19T18:52:07.785Z,19.2
2017-02-19T18:54:05.751Z,19.2
2017-02-19T18:56:05.497Z,19.2
2017-02-19T18:58:04.759Z,19.2
2017-02-19T19:00:05.679Z,19.2
2017-02-19T19:02:05.431Z,19.2
2017-02-19T19:04:05.312Z,19.2
2017-02-19T19:06:05.142Z,19.2
2017-02-19T19:08:07.737Z,19.2
2017-02-19T19:10:05.487Z,19.2
2017-02-19T19:12:05.383Z,19.2
2017-02-19T19:14:05.120Z,19.2
2017-02-19T19:16:07.962Z,19.2
2017-02-19T19:18:05.049Z,19.2
2017-02-19T19:20:05.196Z,19.2
2017-02-19T19:22:06.424Z,19.2
2017-02-19T19:24:05.452Z,19.2
2017-02-19T19:26:04.783Z,19.2
2017-02-19T19:28:07.833Z,19.2
2017-02-19T19:30:05.107Z,19.2
2017-02-19T19:32:04.970Z,19.2
2017-02-19T19:34:04.757Z,19.2
2017-02-19T19:36:07.657Z,19.2
2017-02-19T19:38:05.447Z,19.2
2017-02-19T19:40:04.824Z,19.2
2017-02-19T19:42:04.940Z,19.3
2017-02-19T19:44:04.695Z,19.2
2017-02-19T19:46:05.013Z,19.2
2017-02-19T19:48:04.934Z,19.2
2017-02-19T19:50:07.206Z,19.2
2017-02-19T19:52:04.933Z,19.3
2017-02-19T19:54:10.185Z,19.3
2017-02-19T19:56:05.984Z,19.3
2017-02-19T19:58:04.865Z,19.2
2017-02-19T20:00:13.517Z,19.3
2017-02-19T20:02:05.215Z,19.3
2017-02-19T20:04:04.931Z,19.2
2017-02-19T20:06:04.842Z,19.3
2017-02-19T20:08:05.599Z,19.3
2017-02-19T20:10:05.512Z,19.2
2017-02-19T20:12:05.411Z,19.2
2017-02-19T20:14:12.775Z,19.2
2017-02-19T20:16:05.501Z,19.2
2017-02-19T20:18:05.663Z,19.2
2017-02-19T20:20:05.372Z,19.2
2017-02-19T20:22:05.088Z,19.2
2017-02-19T20:24:05.557Z,19.3
2017-02-19T20:26:05.344Z,19.3
2017-02-19T20:28:05.386Z,19.2
2017-02-19T20:30:05.275Z,19.3
2017-02-19T20:32:05.077Z,19.3
2017-02-19T20:34:04.786Z,19.3
2017-02-19T20:36:06.349Z,19.3
2017-02-19T20:38:05.149Z,19.3
2017-02-19T20:40:04.889Z,19.3
2017-02-19T20:42:04.911Z,19.3
2017-02-19T20:44:05.697Z,19.3
2017-02-19T20:46:05.549Z,19.3
2017-02-19T20:48:05.645Z,19.3
2017-02-19T20:50:05.407Z,19.3
2017-02-19T20:52:05.112Z,19.3
2017-02-19T20:54:05.145Z,19.3
2017-02-19T20:56:07.591Z,19.3
2017-02-19T20:58:05.423Z,19.3
2017-02-19T21:00:05.645Z,19.3
2017-02-19T21:02:05.391Z,19.3
2017-02-19T21:04:05.139Z,19.3
2017-02-19T21:06:05.364Z,19.3
2017-02-19T21:08:05.108Z,19.3
2017-02-19T21:10:04.893Z,19.3
2017-02-19T21:12:07.720Z,19.3
2017-02-19T21:14:05.534Z,19.3
2017-02-19T21:16:05.479Z,19.3
2017-02-19T21:18:05.050Z,19.3
2017-02-19T21:20:04.815Z,19.3
2017-02-19T21:22:05.596Z,19.3
2017-02-19T21:24:05.630Z,19.3
2017-02-19T21:26:08.052Z,19.3
2017-02-19T21:28:05.364Z,19.3
2017-02-19T21:30:05.895Z,19.3
2017-02-19T21:32:04.973Z,19.3
2017-02-19T21:34:04.697Z,19.3
2017-02-19T21:36:06.276Z,19.3
2017-02-19T21:38:05.090Z,19.3
2017-02-19T21:40:05.424Z,19.3
2017-02-19T21:42:05.521Z,19.3
2017-02-19T21:44:07.765Z,19.3
2017-02-19T21:46:05.564Z,19.3
2017-02-19T21:48:05.622Z,19.4
2017-02-19T21:50:05.326Z,19.3
2017-02-19T21:52:06.608Z,19.3
2017-02-19T21:54:07.740Z,19.3
2017-02-19T21:56:18.166Z,19.4
2017-02-19T21:58:05.877Z,19.3
2017-02-19T22:00:04.941Z,19.3
2017-02-19T22:02:04.659Z,19.4
2017-02-19T22:04:05.731Z,19.4
2017-02-19T22:06:05.694Z,19.4
2017-02-19T22:08:10.542Z,19.4
2017-02-19T22:10:05.317Z,19.3
2017-02-19T22:12:05.424Z,19.4
2017-02-19T22:14:07.653Z,19.4
2017-02-19T22:16:05.342Z,19.4
2017-02-19T22:18:06.390Z,19.4
2017-02-19T22:20:05.470Z,19.4
2017-02-19T22:22:05.429Z,19.4
2017-02-19T22:24:05.544Z,19.4
2017-02-19T22:26:05.273Z,19.4
2017-02-19T22:28:07.516Z,19.4
2017-02-19T22:30:05.126Z,19.4
2017-02-19T22:32:07.356Z,19.4
2017-02-19T22:34:04.645Z,19.4
2017-02-19T22:36:06.155Z,19.4
2017-02-19T22:38:05.129Z,19.4
2017-02-19T22:40:07.432Z,19.4
2017-02-19T22:42:05.443Z,19.4
2017-02-19T22:44:05.262Z,19.4
2017-02-19T22:46:13.140Z,19.4
2017-02-19T22:48:08.241Z,19.3
2017-02-19T22:50:08.083Z,19.3
2017-02-19T22:52:05.109Z,19.4
2017-02-19T22:54:17.612Z,19.4
2017-02-19T22:56:07.890Z,19.4
2017-02-19T22:58:04.628Z,19.3
2017-02-19T23:00:05.473Z,19.3
2017-02-19T23:02:05.248Z,19.3
2017-02-19T23:04:05.030Z,19.3
2017-02-19T23:06:05.055Z,19.3
2017-02-19T23:08:05.050Z,19.3
2017-02-19T23:10:04.784Z,19.3
2017-02-19T23:12:05.877Z,19.3
2017-02-19T23:14:05.704Z,19.3
2017-02-19T23:16:05.546Z,19.3
2017-02-19T23:18:05.162Z,19.3
2017-02-19T23:20:04.846Z,19.3
2017-02-19T23:22:10.593Z,19.3
2017-02-19T23:24:05.673Z,19.3
2017-02-19T23:26:05.018Z,19.3
2017-02-19T23:28:04.750Z,19.3
2017-02-19T23:30:08.114Z,19.3
2017-02-19T23:32:04.842Z,19.3
2017-02-19T23:34:04.775Z,19.3
2017-02-19T23:36:09.101Z,19.3
2017-02-19T23:38:04.817Z,19.3
2017-02-19T23:40:04.856Z,19.3
2017-02-19T23:42:11.020Z,19.3
2017-02-19T23:44:04.773Z,19.3
2017-02-19T23:46:05.489Z,19.3
2017-02-19T23:48:05.120Z,19.2
2017-02-19T23:50:04.874Z,19.3
2017-02-19T23:52:05.596Z,19.3
2017-02-19T23:54:05.618Z,19.2
2017-02-19T23:56:05.856Z,19.3
2017-02-19T23:58:05.566Z,19.2
